createdAt,value
2017-08-23T00:01:23.956Z,63.30
2017-08-23T00:03:51.451Z,63.20
2017-08-23T00:06:18.950Z,63.20
2017-08-23T00:08:53.843Z,63.40
2017-08-23T00:11:21.335Z,63.20
2017-08-23T00:13:48.823Z,63.40
2017-08-23T00:16:23.518Z,63.40
2017-08-23T00:18:51.762Z,63.50
2017-08-23T00:21:25.283Z,63.30
2017-08-23T00:23:52.770Z,63.50
2017-08-23T00:26:20.285Z,63.60
2017-08-23T00:28:53.827Z,63.60
2017-08-23T00:31:21.307Z,63.60
2017-08-23T00:33:48.805Z,64.00
2017-08-23T00:36:16.287Z,63.80
2017-08-23T00:38:43.796Z,63.80
2017-08-23T00:41:11.292Z,64.00
2017-08-23T00:43:39.178Z,64.00
2017-08-23T00:46:13.811Z,64.10
2017-08-23T00:48:44.961Z,64.10
2017-08-23T00:51:12.450Z,64.10
2017-08-23T00:53:39.946Z,64.30
2017-08-23T00:56:14.479Z,64.30
2017-08-23T00:58:42.764Z,64.30
2017-08-23T01:01:10.320Z,64.10
2017-08-23T01:03:44.489Z,64.40
2017-08-23T01:06:11.993Z,64.40
2017-08-23T01:08:45.220Z,64.50
2017-08-23T01:11:14.138Z,64.70
2017-08-23T01:13:45.083Z,64.50
2017-08-23T01:16:12.838Z,64.80
2017-08-23T01:18:40.329Z,64.80
2017-08-23T01:21:13.896Z,64.90
2017-08-23T01:23:41.386Z,64.90
2017-08-23T01:26:08.876Z,65.20
2017-08-23T01:28:36.389Z,65.20
2017-08-23T01:31:03.879Z,65.30
2017-08-23T01:33:35.018Z,65.40
2017-08-23T01:36:05.552Z,65.60
2017-08-23T01:38:33.064Z,65.70
2017-08-23T01:41:00.560Z,65.80
2017-08-23T01:43:28.344Z,65.90
2017-08-23T01:46:03.711Z,66.10
2017-08-23T01:48:35.024Z,66.20
2017-08-23T01:51:02.520Z,66.40
2017-08-23T01:53:36.039Z,66.30
2017-08-23T01:56:04.687Z,66.40
2017-08-23T01:58:35.300Z,66.60
2017-08-23T02:01:05.829Z,66.60
2017-08-23T02:03:33.345Z,66.80
2017-08-23T02:06:00.872Z,66.90
2017-08-23T02:11:25.044Z,67.00
2017-08-23T02:13:55.804Z,66.80
2017-08-23T02:16:24.675Z,66.80
2017-08-23T02:18:55.820Z,66.70
2017-08-23T02:21:24.710Z,66.90
2017-08-23T02:23:53.858Z,66.80
2017-08-23T02:26:24.726Z,66.80
2017-08-23T02:28:52.325Z,66.90
2017-08-23T02:31:19.806Z,66.80
2017-08-23T02:33:47.316Z,66.80
2017-08-23T02:36:25.015Z,66.80
2017-08-23T02:38:52.775Z,66.80
2017-08-23T02:41:26.242Z,66.90
2017-08-23T02:43:54.139Z,66.90
2017-08-23T02:46:21.628Z,66.90
2017-08-23T02:48:55.649Z,66.90
2017-08-23T02:51:23.204Z,66.90
2017-08-23T02:53:50.688Z,66.90
2017-08-23T02:56:18.188Z,66.90
2017-08-23T02:58:53.682Z,66.90
2017-08-23T03:01:21.188Z,67.00
2017-08-23T03:03:55.108Z,67.10
2017-08-23T03:06:24.198Z,67.20
2017-08-23T03:08:52.445Z,67.20
2017-08-23T03:11:19.927Z,67.20
2017-08-23T03:13:54.396Z,67.30
2017-08-23T03:16:21.882Z,67.40
2017-08-23T03:18:49.370Z,67.50
2017-08-23T03:21:24.108Z,67.70
2017-08-23T03:23:51.967Z,67.60
2017-08-23T03:26:25.330Z,67.70
2017-08-23T03:28:53.133Z,68.00
2017-08-23T03:31:23.911Z,67.70
2017-08-23T03:33:51.395Z,67.80
2017-08-23T03:36:18.893Z,67.80
2017-08-23T03:38:53.810Z,67.80
2017-08-23T03:41:21.307Z,67.70
2017-08-23T03:43:54.868Z,67.50
2017-08-23T03:46:22.734Z,67.50
2017-08-23T03:48:56.150Z,67.40
2017-08-23T03:51:24.198Z,67.50
2017-08-23T03:53:51.695Z,67.60
2017-08-23T03:56:25.347Z,67.50
2017-08-23T03:58:53.952Z,67.60
2017-08-23T04:01:24.464Z,67.60
2017-08-23T04:03:51.982Z,67.70
2017-08-23T04:06:19.512Z,67.90
2017-08-23T04:08:47.011Z,68.10
2017-08-23T04:11:14.508Z,68.20
2017-08-23T04:13:44.224Z,68.60
2017-08-23T04:16:11.723Z,68.60
2017-08-23T04:18:45.356Z,68.60
2017-08-23T04:21:12.845Z,68.70
2017-08-23T04:23:41.106Z,68.90
2017-08-23T04:26:08.609Z,68.90
2017-08-23T04:28:44.037Z,69.00
2017-08-23T04:31:11.540Z,70.00
2017-08-23T04:33:45.559Z,69.10
2017-08-23T04:36:13.368Z,69.30
2017-08-23T04:38:40.887Z,69.40
2017-08-23T04:41:15.054Z,69.40
2017-08-23T04:43:42.551Z,69.50
2017-08-23T04:46:10.030Z,69.50
2017-08-23T04:48:44.343Z,69.50
2017-08-23T04:51:15.366Z,69.60
2017-08-23T04:53:43.205Z,69.70
2017-08-23T04:56:16.485Z,69.80
2017-08-23T04:58:44.244Z,69.80
2017-08-23T05:01:15.341Z,70.00
2017-08-23T05:03:42.826Z,70.00
2017-08-23T05:06:16.247Z,70.00
2017-08-23T05:08:43.729Z,70.10
2017-08-23T05:11:15.114Z,70.10
2017-08-23T05:13:42.599Z,70.00
2017-08-23T05:16:10.479Z,69.90
2017-08-23T05:18:37.977Z,69.80
2017-08-23T05:21:05.466Z,69.80
2017-08-23T05:23:33.763Z,69.50
2017-08-23T05:26:04.273Z,69.40
2017-08-23T05:28:34.885Z,69.50
2017-08-23T05:31:05.492Z,69.40
2017-08-23T05:33:33.327Z,69.40
2017-08-23T05:36:00.810Z,69.30
2017-08-23T05:38:34.696Z,69.10
2017-08-23T05:41:02.256Z,69.00
2017-08-23T05:43:29.769Z,68.90
2017-08-23T05:45:57.564Z,68.90
2017-08-23T05:48:25.048Z,68.80
2017-08-23T05:50:52.528Z,68.80
2017-08-23T05:53:20.033Z,68.90
2017-08-23T05:55:54.111Z,68.90
2017-08-23T05:58:22.383Z,68.50
2017-08-23T06:00:49.903Z,68.40
2017-08-23T06:03:24.291Z,68.10
2017-08-23T06:05:52.555Z,67.30
2017-08-23T06:08:20.063Z,67.30
2017-08-23T06:10:54.404Z,67.10
2017-08-23T06:13:21.918Z,66.70
2017-08-23T06:15:50.230Z,65.90
2017-08-23T06:18:17.723Z,65.80
2017-08-23T06:20:55.215Z,65.50
2017-08-23T06:23:25.716Z,65.10
2017-08-23T06:25:54.380Z,65.10
2017-08-23T06:28:21.892Z,64.80
2017-08-23T06:30:49.379Z,64.40
2017-08-23T06:33:24.431Z,63.70
2017-08-23T06:35:51.927Z,63.70
2017-08-23T06:38:19.745Z,63.20
2017-08-23T06:40:53.892Z,64.10
2017-08-23T06:43:21.730Z,63.30
2017-08-23T06:45:49.987Z,62.60
2017-08-23T06:48:24.319Z,62.40
2017-08-23T06:50:51.813Z,63.10
2017-08-23T06:53:26.080Z,61.70
2017-08-23T06:55:53.578Z,61.30
2017-08-23T06:58:21.072Z,60.90
2017-08-23T07:00:54.737Z,60.30
2017-08-23T07:03:25.553Z,60.20
2017-08-23T07:05:54.644Z,59.70
2017-08-23T07:08:23.935Z,59.50
2017-08-23T07:10:55.946Z,59.20
2017-08-23T07:13:24.265Z,59.10
2017-08-23T07:15:54.772Z,58.60
2017-08-23T07:18:25.583Z,58.40
2017-08-23T07:20:54.183Z,58.30
2017-08-23T07:23:21.944Z,58.00
2017-08-23T07:25:50.458Z,58.20
2017-08-23T07:28:24.479Z,58.10
2017-08-23T07:30:51.968Z,58.30
2017-08-23T07:33:19.468Z,58.30
2017-08-23T07:35:53.738Z,58.10
2017-08-23T07:38:21.242Z,57.40
2017-08-23T07:40:49.023Z,57.20
2017-08-23T07:43:23.633Z,57.60
2017-08-23T07:45:54.833Z,57.30
2017-08-23T07:48:25.301Z,57.40
2017-08-23T07:50:52.797Z,57.40
2017-08-23T07:53:20.304Z,57.20
2017-08-23T07:55:47.800Z,57.10
2017-08-23T07:58:25.495Z,56.80
2017-08-23T08:00:54.294Z,56.70
2017-08-23T08:03:25.078Z,56.50
2017-08-23T08:05:55.830Z,56.20
2017-08-23T08:08:23.345Z,55.90
2017-08-23T08:10:54.290Z,54.90
2017-08-23T08:13:24.814Z,55.10
2017-08-23T08:15:55.762Z,55.00
2017-08-23T08:18:23.250Z,55.40
2017-08-23T08:20:50.745Z,55.30
2017-08-23T08:23:24.402Z,55.00
2017-08-23T08:25:51.890Z,54.70
2017-08-23T08:28:19.395Z,54.70
2017-08-23T08:30:54.146Z,54.50
2017-08-23T08:33:22.423Z,53.70
2017-08-23T08:35:49.951Z,53.60
2017-08-23T08:38:24.733Z,53.20
2017-08-23T08:40:55.472Z,51.20
2017-08-23T08:43:22.969Z,49.50
2017-08-23T08:45:50.471Z,49.40
2017-08-23T08:48:17.959Z,49.30
2017-08-23T08:50:45.470Z,48.00
2017-08-23T08:53:12.976Z,45.50
2017-08-23T08:55:44.454Z,44.30
2017-08-23T08:58:12.039Z,42.00
2017-08-23T09:00:39.834Z,41.30
2017-08-23T09:03:07.345Z,40.50
2017-08-23T09:05:44.807Z,38.80
2017-08-23T09:08:12.303Z,38.20
2017-08-23T09:10:46.305Z,37.10
2017-08-23T09:13:14.603Z,36.50
2017-08-23T09:15:42.087Z,36.20
2017-08-23T09:18:15.503Z,34.70
2017-08-23T09:20:44.507Z,34.60
2017-08-23T09:23:12.018Z,35.20
2017-08-23T09:25:46.007Z,34.20
2017-08-23T09:28:13.936Z,33.70
2017-08-23T09:30:41.463Z,32.30
2017-08-23T09:33:08.950Z,32.40
2017-08-23T09:35:36.771Z,31.80
2017-08-23T09:38:14.431Z,30.90
2017-08-23T09:40:42.229Z,29.00
2017-08-23T09:43:09.715Z,29.30
2017-08-23T09:45:44.838Z,29.60
2017-08-23T09:48:12.332Z,29.50
2017-08-23T09:50:39.833Z,28.40
2017-08-23T09:53:13.630Z,28.20
2017-08-23T09:55:41.900Z,29.40
2017-08-23T09:58:16.238Z,29.40
2017-08-23T10:00:43.734Z,29.50
2017-08-23T10:03:14.672Z,29.60
2017-08-23T10:05:45.416Z,29.40
2017-08-23T10:08:12.912Z,28.80
2017-08-23T10:10:45.024Z,28.00
2017-08-23T10:13:15.752Z,28.00
2017-08-23T10:15:44.702Z,27.80
2017-08-23T10:18:12.201Z,27.80
2017-08-23T10:20:39.679Z,27.40
2017-08-23T10:23:07.177Z,27.60
2017-08-23T10:25:45.030Z,28.00
2017-08-23T10:28:12.853Z,27.00
2017-08-23T10:30:41.112Z,27.20
2017-08-23T10:33:08.620Z,27.20
2017-08-23T10:35:43.556Z,26.80
2017-08-23T10:38:14.370Z,27.20
2017-08-23T10:40:41.874Z,27.20
2017-08-23T10:43:09.362Z,26.80
2017-08-23T10:45:37.147Z,26.30
2017-08-23T10:48:04.633Z,26.70
2017-08-23T10:50:32.125Z,26.30
2017-08-23T10:53:05.512Z,26.80
2017-08-23T10:55:33.010Z,25.60
2017-08-23T10:58:04.912Z,25.90
2017-08-23T11:00:34.130Z,25.80
2017-08-23T11:03:01.937Z,25.50
2017-08-23T11:05:35.423Z,26.00
2017-08-23T11:08:03.200Z,25.50
2017-08-23T11:10:30.686Z,25.20
2017-08-23T11:12:58.445Z,24.70
2017-08-23T11:15:25.949Z,25.30
2017-08-23T11:17:54.474Z,25.80
2017-08-23T11:20:25.577Z,25.10
2017-08-23T11:22:54.179Z,24.70
2017-08-23T11:25:22.434Z,24.50
2017-08-23T11:27:49.929Z,24.50
2017-08-23T11:30:17.422Z,24.90
2017-08-23T11:32:54.907Z,24.40
2017-08-23T11:35:22.395Z,24.60
2017-08-23T11:37:50.161Z,25.00
2017-08-23T11:40:24.120Z,24.30
2017-08-23T11:42:55.233Z,24.20
2017-08-23T11:45:25.750Z,24.80
2017-08-23T11:47:54.363Z,24.00
2017-08-23T11:50:22.176Z,23.80
2017-08-23T11:52:49.680Z,24.20
2017-08-23T11:55:24.567Z,24.40
2017-08-23T11:57:52.055Z,24.30
2017-08-23T12:00:19.562Z,24.20
2017-08-23T12:02:54.160Z,23.10
2017-08-23T12:05:23.938Z,23.30
2017-08-23T12:07:51.434Z,23.30
2017-08-23T12:10:24.963Z,23.20
2017-08-23T12:12:52.798Z,23.50
2017-08-23T12:15:26.558Z,23.40
2017-08-23T12:17:54.328Z,23.40
2017-08-23T12:20:25.466Z,23.50
2017-08-23T12:22:54.498Z,23.30
2017-08-23T12:25:25.798Z,23.20
2017-08-23T12:27:54.851Z,22.80
2017-08-23T12:30:24.319Z,23.10
2017-08-23T12:32:51.803Z,23.10
2017-08-23T12:35:26.188Z,23.10
2017-08-23T12:37:53.679Z,23.30
2017-08-23T12:40:21.171Z,23.10
2017-08-23T12:42:48.671Z,22.90
2017-08-23T12:45:16.159Z,22.90
2017-08-23T12:47:43.949Z,23.30
2017-08-23T12:50:14.895Z,23.50
2017-08-23T12:52:45.907Z,23.70
2017-08-23T12:55:23.959Z,24.00
2017-08-23T12:57:51.772Z,24.00
2017-08-23T13:00:19.282Z,23.40
2017-08-23T13:02:46.788Z,24.00
2017-08-23T13:05:14.688Z,24.00
2017-08-23T13:07:42.175Z,24.00
2017-08-23T13:10:16.546Z,23.40
2017-08-23T13:12:54.252Z,23.30
2017-08-23T13:15:22.090Z,23.10
2017-08-23T13:17:50.431Z,23.50
2017-08-23T13:20:24.152Z,22.40
2017-08-23T13:22:51.671Z,22.10
2017-08-23T13:25:19.166Z,23.00
2017-08-23T13:27:54.227Z,23.00
2017-08-23T13:30:21.730Z,22.50
2017-08-23T13:32:49.500Z,22.00
2017-08-23T13:35:23.910Z,22.50
2017-08-23T13:37:55.239Z,22.40
2017-08-23T13:40:22.752Z,22.80
2017-08-23T13:42:56.211Z,22.90
2017-08-23T13:45:23.779Z,22.80
2017-08-23T13:47:51.300Z,22.70
2017-08-23T13:50:18.810Z,22.90
2017-08-23T13:52:46.358Z,23.30
2017-08-23T13:55:14.166Z,23.40
2017-08-23T13:57:44.800Z,23.00
2017-08-23T14:00:12.318Z,22.50
2017-08-23T14:02:39.821Z,23.10
2017-08-23T14:05:13.674Z,23.50
2017-08-23T14:07:44.487Z,23.50
2017-08-23T14:10:11.984Z,22.50
2017-08-23T14:12:45.670Z,22.30
2017-08-23T14:15:13.166Z,22.40
2017-08-23T14:17:44.875Z,23.20
2017-08-23T14:20:12.379Z,22.70
2017-08-23T14:22:39.869Z,22.90
2017-08-23T14:25:08.149Z,22.10
2017-08-23T14:27:45.411Z,22.10
2017-08-23T14:30:13.205Z,22.80
2017-08-23T14:32:41.465Z,23.10
2017-08-23T14:35:08.979Z,23.00
2017-08-23T14:37:44.325Z,23.00
2017-08-23T14:40:11.811Z,22.50
2017-08-23T14:42:39.627Z,22.00
2017-08-23T14:45:07.124Z,21.50
2017-08-23T14:47:44.547Z,22.10
2017-08-23T14:50:15.243Z,22.30
2017-08-23T14:52:42.730Z,22.80
2017-08-23T14:55:14.883Z,23.80
2017-08-23T14:57:42.371Z,23.80
2017-08-23T15:00:16.525Z,24.30
2017-08-23T15:02:44.080Z,24.30
2017-08-23T15:05:14.979Z,24.30
2017-08-23T15:07:44.460Z,24.40
2017-08-23T15:10:11.944Z,24.30
2017-08-23T15:12:39.448Z,24.10
2017-08-23T15:15:13.859Z,24.70
2017-08-23T15:17:45.312Z,24.00
2017-08-23T15:20:12.798Z,24.10
2017-08-23T15:22:40.299Z,24.30
2017-08-23T15:25:14.923Z,24.60
2017-08-23T15:27:43.185Z,24.40
2017-08-23T15:30:11.745Z,24.30
2017-08-23T15:32:39.241Z,24.80
2017-08-23T15:35:06.739Z,24.60
2017-08-23T15:37:45.042Z,25.40
2017-08-23T15:40:15.648Z,25.50
2017-08-23T15:42:43.139Z,25.80
2017-08-23T15:45:14.351Z,25.90
2017-08-23T15:47:41.844Z,25.90
2017-08-23T15:50:09.628Z,26.50
2017-08-23T15:52:44.302Z,27.10
2017-08-23T15:55:12.100Z,27.10
2017-08-23T15:57:46.069Z,27.50
2017-08-23T16:00:13.840Z,27.50
2017-08-23T16:02:44.876Z,27.40
2017-08-23T16:05:16.558Z,27.90
2017-08-23T16:07:54.153Z,28.00
2017-08-23T16:10:25.341Z,28.10
2017-08-23T16:12:53.612Z,28.30
2017-08-23T16:15:21.112Z,28.20
2017-08-23T16:17:48.618Z,28.40
2017-08-23T16:20:16.108Z,28.70
2017-08-23T16:22:44.029Z,29.60
2017-08-23T16:25:14.963Z,29.50
2017-08-23T16:27:46.068Z,29.80
2017-08-23T16:30:14.695Z,29.80
2017-08-23T16:32:42.208Z,30.20
2017-08-23T16:35:10.064Z,30.10
2017-08-23T16:37:37.577Z,30.40
2017-08-23T16:40:15.752Z,30.90
2017-08-23T16:42:44.280Z,31.30
2017-08-23T16:45:16.193Z,31.50
2017-08-23T16:47:44.817Z,32.10
2017-08-23T16:50:15.798Z,32.40
2017-08-23T16:52:44.155Z,32.20
2017-08-23T16:55:11.666Z,32.30
2017-08-23T16:57:39.170Z,32.80
2017-08-23T17:00:13.881Z,32.40
2017-08-23T17:02:41.685Z,32.60
2017-08-23T17:05:09.195Z,32.80
2017-08-23T17:07:36.716Z,33.80
2017-08-23T17:10:14.068Z,34.60
2017-08-23T17:12:44.697Z,35.10
2017-08-23T17:15:12.191Z,35.50
2017-08-23T17:17:45.616Z,36.30
2017-08-23T17:20:13.113Z,37.10
2017-08-23T17:22:44.784Z,37.40
2017-08-23T17:25:14.370Z,37.90
2017-08-23T17:27:45.862Z,37.80
2017-08-23T17:30:14.591Z,38.20
2017-08-23T17:32:45.682Z,38.80
2017-08-23T17:35:14.579Z,39.60
2017-08-23T17:37:42.076Z,39.50
2017-08-23T17:40:15.871Z,39.80
2017-08-23T17:42:43.492Z,40.10
2017-08-23T17:45:11.360Z,40.20
2017-08-23T17:47:44.699Z,40.50
2017-08-23T17:50:12.657Z,40.70
2017-08-23T17:52:46.028Z,40.90
2017-08-23T17:55:13.936Z,41.10
2017-08-23T17:57:41.432Z,41.40
2017-08-23T18:00:08.930Z,41.50
2017-08-23T18:02:43.995Z,41.40
2017-08-23T18:05:11.498Z,41.40
2017-08-23T18:07:39.778Z,41.60
2017-08-23T18:10:07.270Z,41.50
2017-08-23T18:12:34.760Z,42.50
2017-08-23T18:15:02.568Z,42.00
2017-08-23T18:17:30.075Z,42.10
2017-08-23T18:20:03.871Z,42.10
2017-08-23T18:22:34.508Z,42.60
2017-08-23T18:25:02.145Z,42.70
2017-08-23T18:27:35.687Z,42.70
2017-08-23T18:30:03.166Z,42.70
2017-08-23T18:32:30.646Z,42.70
2017-08-23T18:34:58.160Z,42.90
2017-08-23T18:37:35.415Z,43.30
2017-08-23T18:40:04.608Z,43.40
2017-08-23T18:42:32.107Z,43.30
2017-08-23T18:45:05.700Z,43.20
2017-08-23T18:47:34.402Z,43.80
2017-08-23T18:50:06.093Z,43.30
2017-08-23T18:52:33.589Z,43.30
2017-08-23T18:55:01.088Z,43.80
2017-08-23T18:57:29.368Z,45.00
2017-08-23T19:00:03.744Z,44.90
2017-08-23T19:02:31.596Z,45.30
2017-08-23T19:05:05.059Z,45.60
2017-08-23T19:07:32.962Z,45.90
2017-08-23T19:10:06.340Z,46.60
2017-08-23T19:12:34.543Z,46.50
2017-08-23T19:15:02.041Z,47.10
2017-08-23T19:17:29.548Z,47.20
2017-08-23T19:20:04.071Z,48.00
2017-08-23T19:22:35.007Z,47.80
2017-08-23T19:25:06.065Z,48.10
2017-08-23T19:27:34.660Z,48.30
2017-08-23T19:30:05.757Z,48.20
2017-08-23T19:32:34.305Z,48.60
2017-08-23T19:35:05.057Z,48.70
2017-08-23T19:37:35.671Z,49.10
2017-08-23T19:40:03.186Z,49.30
2017-08-23T19:42:30.763Z,49.40
2017-08-23T19:44:58.254Z,49.20
2017-08-23T19:47:26.072Z,49.10
2017-08-23T19:49:53.556Z,49.10
2017-08-23T19:52:24.300Z,49.20
2017-08-23T19:54:54.986Z,49.40
2017-08-23T19:57:25.734Z,49.90
2017-08-23T19:59:54.464Z,50.00
2017-08-23T20:02:21.944Z,50.40
2017-08-23T20:04:49.716Z,51.00
2017-08-23T20:07:23.838Z,51.50
2017-08-23T20:09:51.708Z,51.40
2017-08-23T20:12:25.158Z,51.60
2017-08-23T20:14:54.449Z,52.10
2017-08-23T20:17:24.878Z,52.40
2017-08-23T20:19:52.373Z,53.00
2017-08-23T20:22:24.660Z,53.30
2017-08-23T20:24:52.143Z,53.30
2017-08-23T20:27:26.605Z,53.40
2017-08-23T20:29:54.092Z,53.50
2017-08-23T20:32:24.702Z,54.10
2017-08-23T20:34:55.537Z,53.40
2017-08-23T20:37:24.127Z,53.50
2017-08-23T20:39:51.633Z,53.50
2017-08-23T20:42:19.209Z,53.60
2017-08-23T20:44:54.184Z,53.80
2017-08-23T20:47:21.678Z,53.90
2017-08-23T20:49:49.199Z,54.50
2017-08-23T20:52:23.808Z,54.50
2017-08-23T20:54:52.074Z,54.80
2017-08-23T20:57:26.151Z,54.80
2017-08-23T20:59:53.640Z,54.90
2017-08-23T21:02:21.141Z,55.00
2017-08-23T21:04:54.278Z,55.00
2017-08-23T21:07:25.791Z,55.40
2017-08-23T21:09:54.131Z,55.70
2017-08-23T21:12:25.061Z,55.90
2017-08-23T21:14:55.771Z,56.10
2017-08-23T21:17:24.378Z,56.40
2017-08-23T21:19:55.363Z,56.70
2017-08-23T21:22:25.791Z,56.80
2017-08-23T21:24:54.828Z,56.80
2017-08-23T21:27:25.258Z,57.10
2017-08-23T21:29:56.148Z,57.50
2017-08-23T21:32:24.654Z,57.50
2017-08-23T21:34:55.237Z,57.70
2017-08-23T21:37:22.852Z,58.00
2017-08-23T21:39:51.100Z,58.70
2017-08-23T21:42:25.550Z,58.60
2017-08-23T21:44:53.043Z,58.90
2017-08-23T21:47:20.543Z,59.10
2017-08-23T21:49:54.026Z,59.50
2017-08-23T21:52:24.951Z,59.70
2017-08-23T21:54:52.743Z,60.00
2017-08-23T21:57:20.227Z,60.50
2017-08-23T21:59:54.638Z,60.80
2017-08-23T22:02:25.147Z,61.00
2017-08-23T22:04:53.453Z,60.70
2017-08-23T22:07:24.472Z,60.60
2017-08-23T22:09:54.917Z,60.80
2017-08-23T22:12:22.440Z,61.00
2017-08-23T22:14:56.008Z,61.00
2017-08-23T22:17:24.324Z,61.40
2017-08-23T22:19:51.829Z,61.50
2017-08-23T22:22:19.317Z,61.60
2017-08-23T22:24:46.825Z,61.70
2017-08-23T22:27:14.392Z,62.00
2017-08-23T22:29:41.886Z,61.80
2017-08-23T22:32:15.884Z,62.00
2017-08-23T22:34:45.029Z,62.40
2017-08-23T22:37:14.288Z,62.70
2017-08-23T22:39:41.773Z,63.00
2017-08-23T22:42:09.276Z,63.10
2017-08-23T22:44:36.768Z,63.50
2017-08-23T22:47:14.208Z,63.80
2017-08-23T22:49:41.694Z,64.50
2017-08-23T22:52:09.536Z,64.60
2017-08-23T22:54:44.037Z,65.10
2017-08-23T22:57:15.179Z,65.20
2017-08-23T22:59:43.431Z,65.40
2017-08-23T23:02:10.919Z,65.30
2017-08-23T23:04:44.490Z,65.80
2017-08-23T23:07:15.413Z,66.10
2017-08-23T23:09:44.107Z,65.90
2017-08-23T23:12:14.722Z,65.90
2017-08-23T23:14:45.785Z,65.90
2017-08-23T23:17:13.283Z,65.70
2017-08-23T23:19:44.702Z,65.70
2017-08-23T23:22:12.197Z,65.80
2017-08-23T23:24:46.301Z,66.10
2017-08-23T23:27:13.819Z,66.00
2017-08-23T23:29:44.630Z,65.90
2017-08-23T23:32:15.638Z,66.00
2017-08-23T23:34:43.132Z,65.90
2017-08-23T23:37:10.620Z,66.20
2017-08-23T23:39:38.134Z,66.30
2017-08-23T23:42:05.629Z,66.40
2017-08-23T23:44:33.437Z,66.70
2017-08-23T23:47:04.079Z,66.90
2017-08-23T23:49:34.894Z,66.80
2017-08-23T23:52:02.387Z,66.60
2017-08-23T23:54:29.882Z,66.70
2017-08-23T23:57:04.394Z,66.70
2017-08-23T23:59:31.893Z,66.60
